sensor_id;sensor_type;location;lat;lon;timestamp;P1;durP1;ratioP1;P2;durP2;ratioP2
25854;SDS011;13680;49.936;11.344;2023-02-22T00:01:50;7.85;;;3.20;;
25854;SDS011;13680;49.936;11.344;2023-02-22T00:04:37;6.00;;;2.90;;
25854;SDS011;13680;49.936;11.344;2023-02-22T00:07:06;3.35;;;2.38;;
25854;SDS011;13680;49.936;11.344;2023-02-22T00:09:32;6.38;;;3.47;;
25854;SDS011;13680;49.936;11.344;2023-02-22T00:11:57;5.70;;;3.15;;
25854;SDS011;13680;49.936;11.344;2023-02-22T00:14:22;7.13;;;3.33;;
25854;SDS011;13680;49.936;11.344;2023-02-22T00:16:51;4.07;;;2.90;;
25854;SDS011;13680;49.936;11.344;2023-02-22T00:19:18;4.10;;;2.63;;
25854;SDS011;13680;49.936;11.344;2023-02-22T00:21:43;5.18;;;2.78;;
25854;SDS011;13680;49.936;11.344;2023-02-22T00:24:09;3.08;;;2.50;;
25854;SDS011;13680;49.936;11.344;2023-02-22T00:26:48;4.10;;;2.17;;
25854;SDS011;13680;49.936;11.344;2023-02-22T00:29:15;4.38;;;2.60;;
25854;SDS011;13680;49.936;11.344;2023-02-22T00:31:40;3.53;;;2.45;;
25854;SDS011;13680;49.936;11.344;2023-02-22T00:34:06;3.78;;;2.45;;
25854;SDS011;13680;49.936;11.344;2023-02-22T00:36:31;4.47;;;2.40;;
25854;SDS011;13680;49.936;11.344;2023-02-22T00:38:56;4.57;;;2.22;;
25854;SDS011;13680;49.936;11.344;2023-02-22T00:41:22;3.47;;;2.70;;
25854;SDS011;13680;49.936;11.344;2023-02-22T00:43:47;3.75;;;2.30;;
25854;SDS011;13680;49.936;11.344;2023-02-22T00:46:13;3.80;;;2.38;;
25854;SDS011;13680;49.936;11.344;2023-02-22T00:48:39;5.25;;;2.70;;
25854;SDS011;13680;49.936;11.344;2023-02-22T00:51:04;3.65;;;2.60;;
25854;SDS011;13680;49.936;11.344;2023-02-22T00:53:30;3.45;;;2.38;;
25854;SDS011;13680;49.936;11.344;2023-02-22T00:55:55;4.90;;;2.83;;
25854;SDS011;13680;49.936;11.344;2023-02-22T00:58:21;3.63;;;2.47;;
25854;SDS011;13680;49.936;11.344;2023-02-22T01:00:48;4.25;;;2.63;;
25854;SDS011;13680;49.936;11.344;2023-02-22T01:03:14;4.80;;;3.08;;
25854;SDS011;13680;49.936;11.344;2023-02-22T01:05:42;5.03;;;3.05;;
25854;SDS011;13680;49.936;11.344;2023-02-22T01:08:09;3.85;;;2.60;;
25854;SDS011;13680;49.936;11.344;2023-02-22T01:10:37;5.38;;;2.53;;
25854;SDS011;13680;49.936;11.344;2023-02-22T01:13:03;7.22;;;2.85;;
25854;SDS011;13680;49.936;11.344;2023-02-22T01:15:32;4.13;;;2.60;;
25854;SDS011;13680;49.936;11.344;2023-02-22T01:17:59;7.35;;;2.80;;
25854;SDS011;13680;49.936;11.344;2023-02-22T01:20:28;5.53;;;2.58;;
25854;SDS011;13680;49.936;11.344;2023-02-22T01:22:54;11.45;;;3.05;;
25854;SDS011;13680;49.936;11.344;2023-02-22T01:25:26;4.60;;;2.58;;
25854;SDS011;13680;49.936;11.344;2023-02-22T01:27:53;6.57;;;2.67;;
25854;SDS011;13680;49.936;11.344;2023-02-22T01:30:24;3.97;;;2.40;;
25854;SDS011;13680;49.936;11.344;2023-02-22T01:32:51;6.00;;;3.00;;
25854;SDS011;13680;49.936;11.344;2023-02-22T01:35:18;4.53;;;2.97;;
25854;SDS011;13680;49.936;11.344;2023-02-22T01:37:46;4.15;;;2.45;;
25854;SDS011;13680;49.936;11.344;2023-02-22T01:40:19;8.25;;;2.75;;
25854;SDS011;13680;49.936;11.344;2023-02-22T01:42:47;6.93;;;3.10;;
25854;SDS011;13680;49.936;11.344;2023-02-22T01:47:57;3.85;;;2.00;;
25854;SDS011;13680;49.936;11.344;2023-02-22T01:50:27;4.18;;;2.70;;
25854;SDS011;13680;49.936;11.344;2023-02-22T01:52:54;4.93;;;2.67;;
25854;SDS011;13680;49.936;11.344;2023-02-22T01:55:19;3.53;;;1.95;;
25854;SDS011;13680;49.936;11.344;2023-02-22T01:57:44;3.13;;;2.22;;
25854;SDS011;13680;49.936;11.344;2023-02-22T02:00:13;4.43;;;2.63;;
25854;SDS011;13680;49.936;11.344;2023-02-22T02:02:44;3.58;;;2.72;;
25854;SDS011;13680;49.936;11.344;2023-02-22T02:05:15;4.25;;;2.38;;
25854;SDS011;13680;49.936;11.344;2023-02-22T02:07:41;3.92;;;2.40;;
25854;SDS011;13680;49.936;11.344;2023-02-22T02:10:11;8.40;;;2.78;;
25854;SDS011;13680;49.936;11.344;2023-02-22T02:12:38;5.13;;;2.70;;
25854;SDS011;13680;49.936;11.344;2023-02-22T02:15:24;4.15;;;2.40;;
25854;SDS011;13680;49.936;11.344;2023-02-22T02:20:22;4.15;;;2.83;;
25854;SDS011;13680;49.936;11.344;2023-02-22T02:23:14;4.85;;;2.90;;
25854;SDS011;13680;49.936;11.344;2023-02-22T02:37:13;4.45;;;2.60;;
25854;SDS011;13680;49.936;11.344;2023-02-22T02:42:27;3.63;;;2.00;;
25854;SDS011;13680;49.936;11.344;2023-02-22T02:45:07;3.65;;;2.45;;
25854;SDS011;13680;49.936;11.344;2023-02-22T02:47:41;5.05;;;3.00;;
25854;SDS011;13680;49.936;11.344;2023-02-22T02:52:49;5.05;;;2.92;;
25854;SDS011;13680;49.936;11.344;2023-02-22T02:55:19;4.63;;;2.90;;
25854;SDS011;13680;49.936;11.344;2023-02-22T02:57:45;4.82;;;2.78;;
25854;SDS011;13680;49.936;11.344;2023-02-22T03:00:10;4.03;;;2.78;;
25854;SDS011;13680;49.936;11.344;2023-02-22T03:10:42;3.90;;;2.47;;
25854;SDS011;13680;49.936;11.344;2023-02-22T03:18:45;4.90;;;2.80;;
25854;SDS011;13680;49.936;11.344;2023-02-22T03:26:53;5.07;;;3.22;;
25854;SDS011;13680;49.936;11.344;2023-02-22T03:29:27;4.93;;;3.00;;
25854;SDS011;13680;49.936;11.344;2023-02-22T03:31:59;3.53;;;2.63;;
25854;SDS011;13680;49.936;11.344;2023-02-22T03:34:28;5.15;;;3.50;;
25854;SDS011;13680;49.936;11.344;2023-02-22T03:36:59;3.53;;;2.67;;
25854;SDS011;13680;49.936;11.344;2023-02-22T03:39:30;5.63;;;3.40;;
25854;SDS011;13680;49.936;11.344;2023-02-22T03:42:02;4.43;;;3.05;;
25854;SDS011;13680;49.936;11.344;2023-02-22T03:44:32;4.80;;;2.92;;
25854;SDS011;13680;49.936;11.344;2023-02-22T03:47:03;4.75;;;3.08;;
25854;SDS011;13680;49.936;11.344;2023-02-22T03:52:04;5.15;;;3.22;;
25854;SDS011;13680;49.936;11.344;2023-02-22T03:54:30;5.10;;;3.25;;
25854;SDS011;13680;49.936;11.344;2023-02-22T03:57:02;5.03;;;3.42;;
25854;SDS011;13680;49.936;11.344;2023-02-22T04:01:57;5.22;;;3.42;;
25854;SDS011;13680;49.936;11.344;2023-02-22T04:04:23;4.03;;;2.72;;
25854;SDS011;13680;49.936;11.344;2023-02-22T04:06:49;4.03;;;2.60;;
25854;SDS011;13680;49.936;11.344;2023-02-22T04:09:16;4.63;;;3.05;;
25854;SDS011;13680;49.936;11.344;2023-02-22T04:11:42;4.20;;;3.03;;
25854;SDS011;13680;49.936;11.344;2023-02-22T04:14:07;5.95;;;3.03;;
25854;SDS011;13680;49.936;11.344;2023-02-22T04:16:33;7.28;;;3.08;;
25854;SDS011;13680;49.936;11.344;2023-02-22T04:18:58;6.00;;;3.00;;
25854;SDS011;13680;49.936;11.344;2023-02-22T04:21:23;7.88;;;3.03;;
25854;SDS011;13680;49.936;11.344;2023-02-22T04:23:48;6.13;;;3.30;;
25854;SDS011;13680;49.936;11.344;2023-02-22T04:26:14;4.93;;;2.85;;
25854;SDS011;13680;49.936;11.344;2023-02-22T04:28:40;5.80;;;3.17;;
25854;SDS011;13680;49.936;11.344;2023-02-22T04:31:05;4.38;;;2.70;;
25854;SDS011;13680;49.936;11.344;2023-02-22T04:33:31;4.78;;;2.92;;
25854;SDS011;13680;49.936;11.344;2023-02-22T04:35:56;6.13;;;2.90;;
25854;SDS011;13680;49.936;11.344;2023-02-22T04:38:22;4.20;;;2.80;;
25854;SDS011;13680;49.936;11.344;2023-02-22T04:40:49;4.22;;;2.33;;
25854;SDS011;13680;49.936;11.344;2023-02-22T04:43:15;7.78;;;2.97;;
25854;SDS011;13680;49.936;11.344;2023-02-22T04:45:41;3.67;;;2.75;;
25854;SDS011;13680;49.936;11.344;2023-02-22T04:48:06;5.70;;;2.65;;
25854;SDS011;13680;49.936;11.344;2023-02-22T04:50:31;5.25;;;3.00;;
25854;SDS011;13680;49.936;11.344;2023-02-22T04:52:57;3.50;;;2.63;;
25854;SDS011;13680;49.936;11.344;2023-02-22T04:55:22;7.40;;;3.40;;
25854;SDS011;13680;49.936;11.344;2023-02-22T04:57:47;4.43;;;2.90;;
25854;SDS011;13680;49.936;11.344;2023-02-22T05:00:16;5.72;;;3.45;;
25854;SDS011;13680;49.936;11.344;2023-02-22T05:02:43;7.85;;;3.97;;
25854;SDS011;13680;49.936;11.344;2023-02-22T05:05:09;7.53;;;3.63;;
25854;SDS011;13680;49.936;11.344;2023-02-22T05:07:35;11.43;;;3.97;;
25854;SDS011;13680;49.936;11.344;2023-02-22T05:10:00;11.00;;;4.65;;
25854;SDS011;13680;49.936;11.344;2023-02-22T05:12:26;14.40;;;6.80;;
25854;SDS011;13680;49.936;11.344;2023-02-22T05:14:52;13.85;;;5.93;;
25854;SDS011;13680;49.936;11.344;2023-02-22T05:17:17;11.15;;;5.25;;
25854;SDS011;13680;49.936;11.344;2023-02-22T05:19:42;11.55;;;5.13;;
25854;SDS011;13680;49.936;11.344;2023-02-22T05:22:08;13.88;;;4.85;;
25854;SDS011;13680;49.936;11.344;2023-02-22T05:24:33;8.80;;;4.20;;
25854;SDS011;13680;49.936;11.344;2023-02-22T05:26:59;9.77;;;4.32;;
25854;SDS011;13680;49.936;11.344;2023-02-22T05:29:24;5.60;;;3.20;;
25854;SDS011;13680;49.936;11.344;2023-02-22T05:31:50;6.50;;;3.03;;
25854;SDS011;13680;49.936;11.344;2023-02-22T05:34:15;7.00;;;3.50;;
25854;SDS011;13680;49.936;11.344;2023-02-22T05:36:40;5.65;;;3.15;;
25854;SDS011;13680;49.936;11.344;2023-02-22T05:39:06;7.03;;;3.42;;
25854;SDS011;13680;49.936;11.344;2023-02-22T05:41:31;5.03;;;2.92;;
25854;SDS011;13680;49.936;11.344;2023-02-22T05:43:56;4.57;;;2.97;;
25854;SDS011;13680;49.936;11.344;2023-02-22T05:46:22;5.22;;;3.00;;
25854;SDS011;13680;49.936;11.344;2023-02-22T05:48:47;10.73;;;3.10;;
25854;SDS011;13680;49.936;11.344;2023-02-22T05:51:13;9.95;;;3.05;;
25854;SDS011;13680;49.936;11.344;2023-02-22T05:53:38;7.07;;;3.25;;
25854;SDS011;13680;49.936;11.344;2023-02-22T05:56:03;9.88;;;2.78;;
25854;SDS011;13680;49.936;11.344;2023-02-22T05:58:29;4.47;;;3.15;;
25854;SDS011;13680;49.936;11.344;2023-02-22T06:00:54;4.40;;;2.90;;
25854;SDS011;13680;49.936;11.344;2023-02-22T06:03:20;6.78;;;2.97;;
25854;SDS011;13680;49.936;11.344;2023-02-22T06:05:45;4.93;;;3.10;;
25854;SDS011;13680;49.936;11.344;2023-02-22T06:08:10;6.13;;;3.65;;
25854;SDS011;13680;49.936;11.344;2023-02-22T06:10:36;6.82;;;3.13;;
25854;SDS011;13680;49.936;11.344;2023-02-22T06:13:02;7.60;;;3.60;;
25854;SDS011;13680;49.936;11.344;2023-02-22T06:15:28;5.20;;;3.40;;
25854;SDS011;13680;49.936;11.344;2023-02-22T06:17:54;5.72;;;3.35;;
25854;SDS011;13680;49.936;11.344;2023-02-22T06:20:21;5.25;;;3.17;;
25854;SDS011;13680;49.936;11.344;2023-02-22T06:22:51;18.40;;;4.07;;
25854;SDS011;13680;49.936;11.344;2023-02-22T06:25:18;10.45;;;3.67;;
25854;SDS011;13680;49.936;11.344;2023-02-22T06:27:46;8.95;;;3.20;;
25854;SDS011;13680;49.936;11.344;2023-02-22T06:30:13;12.07;;;2.92;;
25854;SDS011;13680;49.936;11.344;2023-02-22T06:32:40;10.23;;;3.25;;
25854;SDS011;13680;49.936;11.344;2023-02-22T06:35:05;4.82;;;2.90;;
25854;SDS011;13680;49.936;11.344;2023-02-22T06:37:31;5.22;;;3.10;;
25854;SDS011;13680;49.936;11.344;2023-02-22T06:39:56;6.82;;;3.90;;
25854;SDS011;13680;49.936;11.344;2023-02-22T06:42:22;5.78;;;3.95;;
25854;SDS011;13680;49.936;11.344;2023-02-22T06:44:48;6.32;;;3.45;;
25854;SDS011;13680;49.936;11.344;2023-02-22T06:47:13;9.30;;;3.88;;
25854;SDS011;13680;49.936;11.344;2023-02-22T06:49:38;3.97;;;2.97;;
25854;SDS011;13680;49.936;11.344;2023-02-22T06:52:04;5.35;;;3.47;;
25854;SDS011;13680;49.936;11.344;2023-02-22T06:54:30;6.03;;;2.88;;
25854;SDS011;13680;49.936;11.344;2023-02-22T06:56:56;4.50;;;3.10;;
25854;SDS011;13680;49.936;11.344;2023-02-22T06:59:21;4.65;;;2.50;;
25854;SDS011;13680;49.936;11.344;2023-02-22T07:01:47;4.18;;;2.35;;
25854;SDS011;13680;49.936;11.344;2023-02-22T07:04:13;3.63;;;2.60;;
25854;SDS011;13680;49.936;11.344;2023-02-22T07:06:43;3.78;;;2.67;;
25854;SDS011;13680;49.936;11.344;2023-02-22T07:09:11;6.20;;;3.50;;
25854;SDS011;13680;49.936;11.344;2023-02-22T07:11:37;7.10;;;3.30;;
25854;SDS011;13680;49.936;11.344;2023-02-22T07:14:03;7.28;;;3.13;;
25854;SDS011;13680;49.936;11.344;2023-02-22T07:16:28;5.93;;;3.42;;
25854;SDS011;13680;49.936;11.344;2023-02-22T07:18:54;6.07;;;3.42;;
25854;SDS011;13680;49.936;11.344;2023-02-22T07:21:19;6.50;;;3.67;;
25854;SDS011;13680;49.936;11.344;2023-02-22T07:23:51;4.78;;;3.33;;
25854;SDS011;13680;49.936;11.344;2023-02-22T07:26:18;8.20;;;3.55;;
25854;SDS011;13680;49.936;11.344;2023-02-22T07:28:44;12.30;;;3.85;;
25854;SDS011;13680;49.936;11.344;2023-02-22T07:31:09;11.68;;;3.97;;
25854;SDS011;13680;49.936;11.344;2023-02-22T07:33:35;8.68;;;3.85;;
25854;SDS011;13680;49.936;11.344;2023-02-22T07:36:00;10.32;;;3.97;;
25854;SDS011;13680;49.936;11.344;2023-02-22T07:38:25;8.02;;;3.85;;
25854;SDS011;13680;49.936;11.344;2023-02-22T07:40:50;9.00;;;4.07;;
25854;SDS011;13680;49.936;11.344;2023-02-22T07:43:20;8.93;;;4.22;;
25854;SDS011;13680;49.936;11.344;2023-02-22T07:45:48;9.65;;;4.25;;
25854;SDS011;13680;49.936;11.344;2023-02-22T07:48:15;11.63;;;4.50;;
25854;SDS011;13680;49.936;11.344;2023-02-22T07:50:42;7.97;;;4.75;;
25854;SDS011;13680;49.936;11.344;2023-02-22T07:53:14;9.30;;;4.80;;
25854;SDS011;13680;49.936;11.344;2023-02-22T07:55:42;16.42;;;6.18;;
25854;SDS011;13680;49.936;11.344;2023-02-22T07:58:07;36.85;;;13.77;;
25854;SDS011;13680;49.936;11.344;2023-02-22T08:00:34;72.82;;;24.50;;
25854;SDS011;13680;49.936;11.344;2023-02-22T08:03:02;69.10;;;21.85;;
25854;SDS011;13680;49.936;11.344;2023-02-22T08:05:30;12.88;;;7.82;;
25854;SDS011;13680;49.936;11.344;2023-02-22T08:07:56;14.82;;;10.38;;
25854;SDS011;13680;49.936;11.344;2023-02-22T08:10:23;8.55;;;5.88;;
25854;SDS011;13680;49.936;11.344;2023-02-22T08:12:49;6.38;;;4.38;;
25854;SDS011;13680;49.936;11.344;2023-02-22T08:15:20;8.23;;;4.18;;
25854;SDS011;13680;49.936;11.344;2023-02-22T08:17:48;8.00;;;4.20;;
25854;SDS011;13680;49.936;11.344;2023-02-22T08:20:14;6.03;;;3.70;;
25854;SDS011;13680;49.936;11.344;2023-02-22T08:22:41;10.85;;;4.65;;
25854;SDS011;13680;49.936;11.344;2023-02-22T08:25:08;8.50;;;4.10;;
25854;SDS011;13680;49.936;11.344;2023-02-22T08:27:34;5.60;;;3.80;;
25854;SDS011;13680;49.936;11.344;2023-02-22T08:29:59;7.05;;;4.25;;
25854;SDS011;13680;49.936;11.344;2023-02-22T08:32:24;6.05;;;4.05;;
25854;SDS011;13680;49.936;11.344;2023-02-22T08:34:50;6.57;;;3.80;;
25854;SDS011;13680;49.936;11.344;2023-02-22T08:37:15;7.38;;;5.55;;
25854;SDS011;13680;49.936;11.344;2023-02-22T08:39:42;12.10;;;9.07;;
25854;SDS011;13680;49.936;11.344;2023-02-22T08:42:07;6.20;;;4.57;;
25854;SDS011;13680;49.936;11.344;2023-02-22T08:44:35;13.25;;;7.53;;
25854;SDS011;13680;49.936;11.344;2023-02-22T08:47:01;8.55;;;6.75;;
25854;SDS011;13680;49.936;11.344;2023-02-22T08:49:27;6.20;;;3.38;;
25854;SDS011;13680;49.936;11.344;2023-02-22T08:51:52;5.57;;;4.05;;
25854;SDS011;13680;49.936;11.344;2023-02-22T08:54:18;3.75;;;3.00;;
25854;SDS011;13680;49.936;11.344;2023-02-22T08:56:43;4.65;;;3.72;;
25854;SDS011;13680;49.936;11.344;2023-02-22T08:59:09;5.93;;;3.65;;
25854;SDS011;13680;49.936;11.344;2023-02-22T09:01:34;7.05;;;3.95;;
25854;SDS011;13680;49.936;11.344;2023-02-22T09:04:00;5.75;;;4.35;;
25854;SDS011;13680;49.936;11.344;2023-02-22T09:06:26;4.55;;;3.38;;
25854;SDS011;13680;49.936;11.344;2023-02-22T09:08:52;6.15;;;3.85;;
25854;SDS011;13680;49.936;11.344;2023-02-22T09:11:17;5.78;;;4.25;;
25854;SDS011;13680;49.936;11.344;2023-02-22T09:13:43;5.78;;;3.90;;
25854;SDS011;13680;49.936;11.344;2023-02-22T09:16:08;5.35;;;3.47;;
25854;SDS011;13680;49.936;11.344;2023-02-22T09:18:34;4.03;;;3.50;;
25854;SDS011;13680;49.936;11.344;2023-02-22T09:21:00;5.95;;;3.45;;
25854;SDS011;13680;49.936;11.344;2023-02-22T09:23:26;4.18;;;3.25;;
25854;SDS011;13680;49.936;11.344;2023-02-22T09:25:51;5.05;;;3.53;;
25854;SDS011;13680;49.936;11.344;2023-02-22T09:28:17;6.07;;;3.83;;
25854;SDS011;13680;49.936;11.344;2023-02-22T09:30:42;5.68;;;4.03;;
25854;SDS011;13680;49.936;11.344;2023-02-22T09:33:09;6.78;;;4.25;;
25854;SDS011;13680;49.936;11.344;2023-02-22T09:35:37;6.40;;;4.20;;
25854;SDS011;13680;49.936;11.344;2023-02-22T09:38:06;5.90;;;4.47;;
25854;SDS011;13680;49.936;11.344;2023-02-22T09:40:34;5.78;;;4.70;;
25854;SDS011;13680;49.936;11.344;2023-02-22T09:49:15;4.65;;;3.63;;
25854;SDS011;13680;49.936;11.344;2023-02-22T09:54:41;7.25;;;4.43;;
25854;SDS011;13680;49.936;11.344;2023-02-22T09:57:17;7.70;;;4.13;;
25854;SDS011;13680;49.936;11.344;2023-02-22T09:59:56;4.78;;;3.53;;
25854;SDS011;13680;49.936;11.344;2023-02-22T10:02:33;5.95;;;3.25;;
25854;SDS011;13680;49.936;11.344;2023-02-22T10:07:34;10.82;;;5.47;;
25854;SDS011;13680;49.936;11.344;2023-02-22T10:10:05;5.68;;;4.63;;
25854;SDS011;13680;49.936;11.344;2023-02-22T10:26:43;21.70;;;11.55;;
25854;SDS011;13680;49.936;11.344;2023-02-22T10:31:43;13.90;;;6.93;;
25854;SDS011;13680;49.936;11.344;2023-02-22T10:34:15;14.80;;;9.25;;
25854;SDS011;13680;49.936;11.344;2023-02-22T10:36:45;10.95;;;7.18;;
25854;SDS011;13680;49.936;11.344;2023-02-22T10:42:05;9.32;;;6.35;;
25854;SDS011;13680;49.936;11.344;2023-02-22T10:44:34;8.57;;;5.55;;
25854;SDS011;13680;49.936;11.344;2023-02-22T10:47:00;7.97;;;5.00;;
25854;SDS011;13680;49.936;11.344;2023-02-22T10:49:33;9.90;;;5.22;;
25854;SDS011;13680;49.936;11.344;2023-02-22T10:52:03;9.63;;;5.95;;
25854;SDS011;13680;49.936;11.344;2023-02-22T10:54:37;7.38;;;5.05;;
25854;SDS011;13680;49.936;11.344;2023-02-22T10:57:05;14.25;;;5.10;;
25854;SDS011;13680;49.936;11.344;2023-02-22T10:59:35;6.78;;;4.85;;
25854;SDS011;13680;49.936;11.344;2023-02-22T11:02:23;6.60;;;4.75;;
25854;SDS011;13680;49.936;11.344;2023-02-22T11:04:50;6.65;;;4.88;;
25854;SDS011;13680;49.936;11.344;2023-02-22T11:10:14;5.65;;;4.25;;
25854;SDS011;13680;49.936;11.344;2023-02-22T11:12:55;5.60;;;3.63;;
25854;SDS011;13680;49.936;11.344;2023-02-22T11:17:51;12.45;;;4.55;;
25854;SDS011;13680;49.936;11.344;2023-02-22T11:20:20;6.85;;;4.22;;
25854;SDS011;13680;49.936;11.344;2023-02-22T11:22:50;8.23;;;4.72;;
25854;SDS011;13680;49.936;11.344;2023-02-22T11:25:19;7.07;;;4.03;;
25854;SDS011;13680;49.936;11.344;2023-02-22T11:27:48;5.90;;;4.00;;
25854;SDS011;13680;49.936;11.344;2023-02-22T11:32:58;6.75;;;4.50;;
25854;SDS011;13680;49.936;11.344;2023-02-22T11:37:52;5.28;;;3.67;;
25854;SDS011;13680;49.936;11.344;2023-02-22T11:40:19;7.32;;;4.00;;
25854;SDS011;13680;49.936;11.344;2023-02-22T11:42:47;8.60;;;3.90;;
25854;SDS011;13680;49.936;11.344;2023-02-22T11:47:49;4.70;;;3.22;;
25854;SDS011;13680;49.936;11.344;2023-02-22T11:58:42;6.65;;;3.60;;
25854;SDS011;13680;49.936;11.344;2023-02-22T12:01:30;5.90;;;3.42;;
25854;SDS011;13680;49.936;11.344;2023-02-22T12:06:38;5.07;;;2.92;;
25854;SDS011;13680;49.936;11.344;2023-02-22T12:12:01;4.22;;;3.00;;
25854;SDS011;13680;49.936;11.344;2023-02-22T12:15:03;4.82;;;2.97;;
25854;SDS011;13680;49.936;11.344;2023-02-22T12:17:43;6.20;;;3.00;;
25854;SDS011;13680;49.936;11.344;2023-02-22T12:20:19;4.13;;;3.25;;
25854;SDS011;13680;49.936;11.344;2023-02-22T12:23:06;5.50;;;3.80;;
25854;SDS011;13680;49.936;11.344;2023-02-22T12:25:46;8.90;;;3.50;;
25854;SDS011;13680;49.936;11.344;2023-02-22T12:33:42;4.68;;;2.83;;
25854;SDS011;13680;49.936;11.344;2023-02-22T12:36:15;4.10;;;2.90;;
25854;SDS011;13680;49.936;11.344;2023-02-22T12:38:46;5.97;;;3.10;;
25854;SDS011;13680;49.936;11.344;2023-02-22T12:44:08;5.00;;;3.00;;
25854;SDS011;13680;49.936;11.344;2023-02-22T12:46:48;5.97;;;2.92;;
25854;SDS011;13680;49.936;11.344;2023-02-22T13:03:39;4.50;;;3.00;;
25854;SDS011;13680;49.936;11.344;2023-02-22T13:11:52;5.25;;;2.60;;
25854;SDS011;13680;49.936;11.344;2023-02-22T13:17:08;5.40;;;2.28;;
25854;SDS011;13680;49.936;11.344;2023-02-22T13:19:59;2.78;;;2.00;;
25854;SDS011;13680;49.936;11.344;2023-02-22T13:22:34;5.05;;;2.90;;
25854;SDS011;13680;49.936;11.344;2023-02-22T13:25:13;4.22;;;2.45;;
25854;SDS011;13680;49.936;11.344;2023-02-22T13:27:41;7.03;;;2.40;;
25854;SDS011;13680;49.936;11.344;2023-02-22T13:30:14;6.50;;;3.05;;
25854;SDS011;13680;49.936;11.344;2023-02-22T13:32:53;5.30;;;2.90;;
25854;SDS011;13680;49.936;11.344;2023-02-22T13:43:56;4.55;;;2.75;;
25854;SDS011;13680;49.936;11.344;2023-02-22T13:52:33;3.03;;;2.60;;
25854;SDS011;13680;49.936;11.344;2023-02-22T13:55:23;3.95;;;2.85;;
25854;SDS011;13680;49.936;11.344;2023-02-22T13:58:02;6.55;;;3.38;;
25854;SDS011;13680;49.936;11.344;2023-02-22T14:10:44;4.90;;;2.70;;
25854;SDS011;13680;49.936;11.344;2023-02-22T14:13:09;6.50;;;2.45;;
25854;SDS011;13680;49.936;11.344;2023-02-22T14:15:35;3.38;;;2.72;;
25854;SDS011;13680;49.936;11.344;2023-02-22T14:18:24;4.38;;;2.70;;
25854;SDS011;13680;49.936;11.344;2023-02-22T14:21:04;5.20;;;2.60;;
25854;SDS011;13680;49.936;11.344;2023-02-22T14:26:15;3.88;;;2.72;;
25854;SDS011;13680;49.936;11.344;2023-02-22T14:31:15;4.60;;;2.60;;
25854;SDS011;13680;49.936;11.344;2023-02-22T14:33:57;7.85;;;2.85;;
25854;SDS011;13680;49.936;11.344;2023-02-22T14:41:59;4.88;;;2.42;;
25854;SDS011;13680;49.936;11.344;2023-02-22T14:44:35;4.65;;;2.72;;
25854;SDS011;13680;49.936;11.344;2023-02-22T14:47:05;6.90;;;2.53;;
25854;SDS011;13680;49.936;11.344;2023-02-22T14:49:39;3.15;;;2.28;;
25854;SDS011;13680;49.936;11.344;2023-02-22T14:52:16;5.50;;;2.60;;
25854;SDS011;13680;49.936;11.344;2023-02-22T14:54:50;7.25;;;3.15;;
25854;SDS011;13680;49.936;11.344;2023-02-22T14:57:32;5.15;;;2.70;;
25854;SDS011;13680;49.936;11.344;2023-02-22T15:00:14;6.05;;;2.90;;
25854;SDS011;13680;49.936;11.344;2023-02-22T15:02:44;6.22;;;3.20;;
25854;SDS011;13680;49.936;11.344;2023-02-22T15:05:15;5.50;;;3.72;;
25854;SDS011;13680;49.936;11.344;2023-02-22T15:07:52;4.45;;;2.85;;
25854;SDS011;13680;49.936;11.344;2023-02-22T15:10:29;6.47;;;3.63;;
25854;SDS011;13680;49.936;11.344;2023-02-22T15:13:17;4.70;;;2.92;;
25854;SDS011;13680;49.936;11.344;2023-02-22T15:15:48;5.05;;;2.80;;
25854;SDS011;13680;49.936;11.344;2023-02-22T15:18:24;3.97;;;2.87;;
25854;SDS011;13680;49.936;11.344;2023-02-22T15:20:55;5.95;;;2.67;;
25854;SDS011;13680;49.936;11.344;2023-02-22T15:23:28;4.40;;;2.25;;
25854;SDS011;13680;49.936;11.344;2023-02-22T15:26:02;4.95;;;2.17;;
25854;SDS011;13680;49.936;11.344;2023-02-22T15:28:28;4.75;;;2.30;;
25854;SDS011;13680;49.936;11.344;2023-02-22T15:31:16;4.13;;;2.22;;
25854;SDS011;13680;49.936;11.344;2023-02-22T15:33:49;7.00;;;2.58;;
25854;SDS011;13680;49.936;11.344;2023-02-22T15:36:17;2.78;;;1.92;;
25854;SDS011;13680;49.936;11.344;2023-02-22T15:38:50;4.22;;;2.75;;
25854;SDS011;13680;49.936;11.344;2023-02-22T15:41:22;6.47;;;2.70;;
25854;SDS011;13680;49.936;11.344;2023-02-22T15:43:56;3.90;;;2.28;;
25854;SDS011;13680;49.936;11.344;2023-02-22T15:46:26;3.05;;;2.20;;
25854;SDS011;13680;49.936;11.344;2023-02-22T15:51:37;6.82;;;2.20;;
25854;SDS011;13680;49.936;11.344;2023-02-22T15:54:05;5.47;;;2.50;;
25854;SDS011;13680;49.936;11.344;2023-02-22T15:56:33;3.83;;;2.40;;
25854;SDS011;13680;49.936;11.344;2023-02-22T15:59:08;6.78;;;3.03;;
25854;SDS011;13680;49.936;11.344;2023-02-22T16:01:40;6.10;;;2.45;;
25854;SDS011;13680;49.936;11.344;2023-02-22T16:04:13;9.52;;;3.60;;
25854;SDS011;13680;49.936;11.344;2023-02-22T16:06:44;8.10;;;2.88;;
25854;SDS011;13680;49.936;11.344;2023-02-22T16:09:10;4.40;;;2.67;;
25854;SDS011;13680;49.936;11.344;2023-02-22T16:11:39;5.47;;;2.40;;
25854;SDS011;13680;49.936;11.344;2023-02-22T16:17:10;6.45;;;2.50;;
25854;SDS011;13680;49.936;11.344;2023-02-22T16:22:04;19.13;;;3.80;;
25854;SDS011;13680;49.936;11.344;2023-02-22T16:24:38;6.43;;;2.90;;
25854;SDS011;13680;49.936;11.344;2023-02-22T16:29:40;7.32;;;2.13;;
25854;SDS011;13680;49.936;11.344;2023-02-22T16:32:06;2.90;;;2.10;;
25854;SDS011;13680;49.936;11.344;2023-02-22T16:34:32;6.10;;;2.03;;
25854;SDS011;13680;49.936;11.344;2023-02-22T16:36:58;6.97;;;2.60;;
25854;SDS011;13680;49.936;11.344;2023-02-22T16:41:58;4.68;;;3.00;;
25854;SDS011;13680;49.936;11.344;2023-02-22T16:44:26;6.90;;;3.15;;
25854;SDS011;13680;49.936;11.344;2023-02-22T16:46:53;5.90;;;3.13;;
25854;SDS011;13680;49.936;11.344;2023-02-22T16:49:21;7.70;;;3.20;;
25854;SDS011;13680;49.936;11.344;2023-02-22T16:52:05;7.63;;;4.10;;
25854;SDS011;13680;49.936;11.344;2023-02-22T16:54:32;9.18;;;5.47;;
25854;SDS011;13680;49.936;11.344;2023-02-22T16:57:03;8.77;;;5.07;;
25854;SDS011;13680;49.936;11.344;2023-02-22T16:59:34;10.60;;;6.93;;
25854;SDS011;13680;49.936;11.344;2023-02-22T17:02:02;10.38;;;6.22;;
25854;SDS011;13680;49.936;11.344;2023-02-22T17:04:31;9.48;;;6.03;;
25854;SDS011;13680;49.936;11.344;2023-02-22T17:06:57;8.63;;;5.72;;
25854;SDS011;13680;49.936;11.344;2023-02-22T17:09:23;9.48;;;5.85;;
25854;SDS011;13680;49.936;11.344;2023-02-22T17:11:49;9.23;;;4.60;;
25854;SDS011;13680;49.936;11.344;2023-02-22T17:14:17;6.40;;;3.75;;
25854;SDS011;13680;49.936;11.344;2023-02-22T17:16:47;4.85;;;3.10;;
25854;SDS011;13680;49.936;11.344;2023-02-22T17:19:16;5.75;;;3.30;;
25854;SDS011;13680;49.936;11.344;2023-02-22T17:21:43;7.78;;;3.25;;
25854;SDS011;13680;49.936;11.344;2023-02-22T17:24:10;4.07;;;3.00;;
25854;SDS011;13680;49.936;11.344;2023-02-22T17:26:37;5.50;;;3.22;;
25854;SDS011;13680;49.936;11.344;2023-02-22T17:29:03;8.43;;;3.80;;
25854;SDS011;13680;49.936;11.344;2023-02-22T17:31:28;4.95;;;3.65;;
25854;SDS011;13680;49.936;11.344;2023-02-22T17:33:55;9.77;;;4.07;;
25854;SDS011;13680;49.936;11.344;2023-02-22T17:36:26;5.45;;;3.80;;
25854;SDS011;13680;49.936;11.344;2023-02-22T17:38:52;11.07;;;4.60;;
25854;SDS011;13680;49.936;11.344;2023-02-22T17:41:17;8.48;;;3.92;;
25854;SDS011;13680;49.936;11.344;2023-02-22T17:43:42;7.18;;;4.47;;
25854;SDS011;13680;49.936;11.344;2023-02-22T17:46:08;11.82;;;4.68;;
25854;SDS011;13680;49.936;11.344;2023-02-22T17:48:33;8.57;;;4.45;;